»·PEaware :: UAL745 KASE-KDEN

UAL745 :: KASE-KDEN

FLIGHT INFORMATION

Flight Status: Arrived
Operator:
United Airlines
More flights by this operator :: More flights under this callsign
Pilot: Max W. (2591)
Aircraft: AIRBUS A320
(A320)
More flights by this aircraft type
Origin: KASE Aspen-Pitkin Co/Sardy
United States
Destination: KDEN Denver Intl
United States
More flights between these airports :: More routes between these airports
Route: +PITKN4 LINDZ JNETT TELLR2
File this flight plan on PilotEdge
Remarks:
Altitude:
(Current/Filed)
19,000ft
Speed:
(Current/Filed)
450kts
Departed: 01-May-18 05:54 PM
Arrived: 01-May-18 06:27 PM
Distance/Time
Traveled:
109nm/0:33
Distance/Time
To Go:
Arrived

Flight Plot

Page will automatically refresh every two minutes.

Flight plan parsing failed; only flown route is shown


Map Options




Map Legend


Flown Route
Filed Route
Departure Airport
Arrival Airport
Navaid (VOR, NDB)
Fix

Horizontal Profiles

Position Reports

Time Latitude Longitude Heading Altitude Ground
Speed
01-May-18 17:31 39.219022 -106.864523 73 7782ft 0kts
01-May-18 17:32 39.219022 -106.864523 73 7782ft 0kts
01-May-18 17:33 39.219022 -106.864523 73 7782ft 0kts
01-May-18 17:34 39.219022 -106.864523 73 7782ft 0kts
01-May-18 17:35 39.219022 -106.864523 73 7782ft 0kts
01-May-18 17:36 39.219022 -106.864523 73 7782ft 0kts
01-May-18 17:37 39.219022 -106.864523 73 7782ft 0kts
01-May-18 17:38 39.219022 -106.864523 73 7782ft 0kts
01-May-18 17:39 39.219022 -106.864523 73 7782ft 0kts
01-May-18 17:40 39.219022 -106.864523 73 7782ft 0kts
01-May-18 17:41 39.219022 -106.864523 73 7782ft 0kts
01-May-18 17:42 39.218924 -106.864981 86 7783ft 1kts
01-May-18 17:43 39.218916 -106.864960 109 7782ft 1kts
01-May-18 17:44 39.216885 -106.864647 158 7782ft 5kts
01-May-18 17:45 39.215594 -106.864038 159 7782ft 0kts
01-May-18 17:46 39.213936 -106.863253 159 7783ft 8kts
01-May-18 17:47 39.212463 -106.862554 162 7782ft 0kts
01-May-18 17:48 39.212462 -106.862554 163 7782ft 0kts
01-May-18 17:49 39.212463 -106.862554 162 7782ft 0kts
01-May-18 17:50 39.212463 -106.862554 162 7782ft 0kts
01-May-18 17:51 39.211963 -106.862658 220 7782ft 10kts
01-May-18 17:52 39.211953 -106.863478 336 7782ft 0kts
01-May-18 17:53 39.241290 -106.877392 330 8817ft 176kts
01-May-18 17:54 39.287740 -106.900668 297 11100ft 215kts
01-May-18 17:55 39.317951 -106.978930 292 13438ft 267kts
01-May-18 17:56 39.352079 -107.065657 290 16382ft 281kts
01-May-18 17:57 39.418841 -107.102890 24 18796ft 332kts
01-May-18 17:58 39.438119 -107.001799 130 19027ft 340kts
01-May-18 18:00 39.383901 -106.910490 123 19011ft 353kts
01-May-18 18:01 39.369277 -106.782586 94 19007ft 371kts
01-May-18 18:02 39.362210 -106.652412 93 19040ft 371kts
01-May-18 18:03 39.355013 -106.521643 93 19064ft 371kts
01-May-18 18:04 39.328438 -106.396490 111 19061ft 366kts
01-May-18 18:05 39.293924 -106.280201 112 19061ft 366kts
01-May-18 18:06 39.257949 -106.159801 112 19061ft 366kts
01-May-18 18:07 39.262653 -106.030360 77 19055ft 372kts
01-May-18 18:08 39.281385 -105.899702 77 19045ft 373kts
01-May-18 18:09 39.299839 -105.768968 77 19045ft 373kts
01-May-18 18:10 39.325700 -105.641319 55 19057ft 371kts
01-May-18 18:11 39.376157 -105.526540 55 19002ft 371kts
01-May-18 18:12 39.399175 -105.400854 88 17936ft 366kts
01-May-18 18:13 39.404333 -105.279757 85 17158ft 333kts
01-May-18 18:14 39.409607 -105.168535 85 16467ft 303kts
01-May-18 18:15 39.414401 -105.063028 89 15068ft 291kts
01-May-18 18:16 39.417809 -104.964711 89 13472ft 272kts
01-May-18 18:17 39.425310 -104.872069 86 12008ft 252kts
01-May-18 18:18 39.433247 -104.780447 86 11774ft 253kts
01-May-18 18:19 39.458026 -104.696710 46 10942ft 261kts
01-May-18 18:20 39.526003 -104.667160 11 10813ft 256kts
01-May-18 18:21 39.591007 -104.663464 1 10122ft 222kts
01-May-18 18:22 39.642865 -104.662803 4 8893ft 193kts
01-May-18 18:23 39.695498 -104.662141 5 7933ft 188kts
01-May-18 18:24 39.745688 -104.661565 5 6942ft 180kts
01-May-18 18:25 39.788969 -104.661061 7 6114ft 146kts
01-May-18 18:26 39.828507 -104.660607 8 5371ft 140kts
01-May-18 18:27 39.849047 -104.661611 330 5327ft 23kts
01-May-18 18:28 39.852926 -104.662345 0 5327ft 20kts
01-May-18 18:29 39.859926 -104.662524 306 5327ft 14kts
01-May-18 18:30 39.860605 -104.667746 269 5327ft 14kts
01-May-18 18:31 39.859445 -104.669613 181 5327ft 0kts

Navigation Log

Ident Type
Flight plan parsing failed, navigation log unavailable